Time;durP1;ratioP1;P1;durP2;ratioP2;P2;SDS_P1;SDS_P2;PMS_P1;PMS_P2;Temp;Humidity;BMP_temperature;BMP_pressure;BME280_temperature;BME280_humidity;BME280_pressure;Samples;Min_cycle;Max_cycle;Signal;HPM_P1;HPM_P2
2021/03/06 00:01:12;;;;;;;8.93;1.90;;;;;;;;;;4332436;33;20191;-78
2021/03/06 00:03:40;;;;;;;7.22;1.80;;;;;;;;;;4329064;33;20052;-79
2021/03/06 00:06:08;;;;;;;11.18;1.90;;;;;;;;;;4326986;33;20048;-78
2021/03/06 00:08:36;;;;;;;9.30;1.80;;;;;;;;;;4322018;33;20956;-78
2021/03/06 00:11:04;;;;;;;15.82;10.38;;;;;;;;;;4321680;33;20491;-80
2021/03/06 00:13:35;;;;;;;20.15;15.60;;;;;;;;;;4327835;33;20380;-78
2021/03/06 00:16:03;;;;;;;26.55;17.83;;;;;;;;;;4327948;33;20070;-78
2021/03/06 00:18:32;;;;;;;19.30;15.60;;;;;;;;;;4326348;33;20098;-78
2021/03/06 00:21:00;;;;;;;16.73;14.73;;;;;;;;;;4326444;33;21262;-81
2021/03/06 00:23:46;;;;;;;18.30;15.25;;;;;;;;;;4336211;33;20123;-78
2021/03/06 00:26:14;;;;;;;22.67;20.25;;;;;;;;;;4328895;33;20089;-78
2021/03/06 00:28:42;;;;;;;20.05;18.00;;;;;;;;;;4320117;33;20116;-81
2021/03/06 00:31:11;;;;;;;17.77;15.40;;;;;;;;;;4328656;33;20107;-80
2021/03/06 00:33:39;;;;;;;20.88;17.15;;;;;;;;;;4329874;33;20604;-78
2021/03/06 00:36:07;;;;;;;17.83;16.10;;;;;;;;;;4326907;33;20092;-78
2021/03/06 00:38:35;;;;;;;24.42;18.17;;;;;;;;;;4325874;33;20051;-82
2021/03/06 00:41:03;;;;;;;20.60;17.85;;;;;;;;;;4332059;33;20102;-79
2021/03/06 00:43:31;;;;;;;14.77;13.30;;;;;;;;;;4323317;33;20075;-78
2021/03/06 00:45:59;;;;;;;30.02;26.48;;;;;;;;;;4319853;33;20179;-78
2021/03/06 00:48:27;;;;;;;29.00;26.10;;;;;;;;;;4319526;33;20098;-80
2021/03/06 00:50:55;;;;;;;20.33;17.95;;;;;;;;;;4318472;33;20095;-78
2021/03/06 00:53:24;;;;;;;23.55;21.17;;;;;;;;;;4318641;33;20103;-78
2021/03/06 00:55:53;;;;;;;22.50;20.27;;;;;;;;;;4315676;33;20088;-77
2021/03/06 00:58:22;;;;;;;28.00;22.85;;;;;;;;;;4323984;33;20103;-77
2021/03/06 01:00:51;;;;;;;24.42;21.83;;;;;;;;;;4330545;33;20055;-79
2021/03/06 01:03:21;;;;;;;26.17;23.55;;;;;;;;;;4326573;33;20111;-77
2021/03/06 01:05:48;;;;;;;26.48;24.08;;;;;;;;;;4321614;33;20128;-78
2021/03/06 01:08:17;;;;;;;24.87;22.30;;;;;;;;;;4328171;33;20547;-78
2021/03/06 01:10:45;;;;;;;33.00;17.62;;;;;;;;;;4327859;33;20095;-80
2021/03/06 01:13:13;;;;;;;21.98;17.40;;;;;;;;;;4326632;33;20066;-79
2021/03/06 01:15:42;;;;;;;13.13;4.72;;;;;;;;;;4330928;33;20115;-78
2021/03/06 01:18:10;;;;;;;19.30;15.70;;;;;;;;;;4318429;33;20103;-80
2021/03/06 01:20:38;;;;;;;13.65;10.13;;;;;;;;;;4326199;33;20048;-78
2021/03/06 01:23:06;;;;;;;12.13;8.43;;;;;;;;;;4328170;33;20178;-79
2021/03/06 01:25:34;;;;;;;13.30;6.65;;;;;;;;;;4325697;33;20631;-79
2021/03/06 01:28:03;;;;;;;16.37;6.20;;;;;;;;;;4328525;33;20077;-78
2021/03/06 01:30:31;;;;;;;14.85;5.87;;;;;;;;;;4332543;33;20079;-78
2021/03/06 01:32:59;;;;;;;11.00;5.10;;;;;;;;;;4323909;33;20716;-77
2021/03/06 01:35:27;;;;;;;24.70;22.48;;;;;;;;;;4327690;33;20110;-79
2021/03/06 01:37:56;;;;;;;24.55;22.35;;;;;;;;;;4328300;33;20107;-77
2021/03/06 01:40:26;;;;;;;17.45;14.90;;;;;;;;;;4331331;33;20617;-78
2021/03/06 01:42:54;;;;;;;23.05;20.65;;;;;;;;;;4329599;33;20112;-80
2021/03/06 01:45:22;;;;;;;22.48;20.60;;;;;;;;;;4325739;33;20134;-79
2021/03/06 01:47:51;;;;;;;7.35;2.22;;;;;;;;;;4334041;33;20039;-78
2021/03/06 01:50:21;;;;;;;13.02;11.10;;;;;;;;;;4332880;33;20098;-78
2021/03/06 01:52:49;;;;;;;13.85;2.00;;;;;;;;;;4324015;33;20149;-80
2021/03/06 01:55:18;;;;;;;8.30;1.42;;;;;;;;;;4323998;33;20136;-80
2021/03/06 01:57:47;;;;;;;11.77;1.95;;;;;;;;;;4331024;33;20081;-78
2021/03/06 02:00:27;;;;;;;11.43;1.80;;;;;;;;;;4328046;33;20180;-78
2021/03/06 02:02:56;;;;;;;14.27;2.70;;;;;;;;;;4325694;33;20130;-78
2021/03/06 02:05:25;;;;;;;18.55;15.45;;;;;;;;;;4328730;33;20084;-79
2021/03/06 02:07:53;;;;;;;19.60;15.60;;;;;;;;;;4333085;33;20465;-79
2021/03/06 02:10:28;;;;;;;12.40;8.13;;;;;;;;;;4332806;33;20145;-78
2021/03/06 02:13:01;;;;;;;9.60;5.07;;;;;;;;;;4327891;33;20068;-78
2021/03/06 02:15:47;;;;;;;7.97;1.30;;;;;;;;;;4328180;33;20376;-79
2021/03/06 02:18:34;;;;;;;10.15;1.80;;;;;;;;;;4332364;33;20106;-80
2021/03/06 02:21:29;;;;;;;12.05;2.80;;;;;;;;;;4330129;33;20415;-78
2021/03/06 02:24:16;;;;;;;10.98;4.32;;;;;;;;;;4328650;33;20123;-78
2021/03/06 02:26:45;;;;;;;13.40;5.60;;;;;;;;;;4336681;33;20149;-79
2021/03/06 02:29:29;;;;;;;15.93;7.70;;;;;;;;;;4328858;33;20083;-79
2021/03/06 02:32:00;;;;;;;16.48;14.60;;;;;;;;;;4324850;33;20087;-79
2021/03/06 02:34:30;;;;;;;20.60;16.20;;;;;;;;;;4329477;33;20112;-77
2021/03/06 02:37:00;;;;;;;19.00;13.82;;;;;;;;;;4324747;33;21010;-78
2021/03/06 02:39:32;;;;;;;11.50;5.68;;;;;;;;;;4326579;33;20211;-79
2021/03/06 02:42:01;;;;;;;18.20;13.52;;;;;;;;;;4324505;33;20060;-78
2021/03/06 02:44:30;;;;;;;23.38;14.93;;;;;;;;;;4329472;33;20107;-78
2021/03/06 02:46:59;;;;;;;14.77;8.90;;;;;;;;;;4324620;33;20071;-78
2021/03/06 02:49:28;;;;;;;15.55;2.70;;;;;;;;;;4327657;33;20427;-79
2021/03/06 02:51:56;;;;;;;14.85;2.60;;;;;;;;;;4328867;33;20384;-80
2021/03/06 02:54:25;;;;;;;33.47;29.63;;;;;;;;;;4328370;33;20103;-80
2021/03/06 02:56:53;;;;;;;31.02;23.98;;;;;;;;;;4303467;33;20124;-79
2021/03/06 02:59:27;;;;;;;35.28;24.25;;;;;;;;;;4325683;33;20130;-80
2021/03/06 03:02:05;;;;;;;18.02;2.12;;;;;;;;;;4323486;33;20139;-80
2021/03/06 03:04:40;;;;;;;32.28;22.10;;;;;;;;;;4319914;33;20067;-79
2021/03/06 03:07:16;;;;;;;17.02;2.22;;;;;;;;;;4325641;33;20410;-78
2021/03/06 03:09:45;;;;;;;17.45;2.53;;;;;;;;;;4335186;33;20063;-79
2021/03/06 03:12:20;;;;;;;39.08;27.08;;;;;;;;;;4363244;27;20056;-94
2021/03/06 03:15:06;;;;;;;31.58;28.17;;;;;;;;;;4320015;33;20056;-93
2021/03/06 03:17:53;;;;;;;21.12;11.90;;;;;;;;;;4321975;33;20537;-94
2021/03/06 03:20:33;;;;;;;16.87;2.00;;;;;;;;;;4319986;33;20052;-94
2021/03/06 03:23:28;;;;;;;13.00;2.10;;;;;;;;;;4303845;33;20138;-94
2021/03/06 03:26:11;;;;;;;15.82;2.47;;;;;;;;;;4313246;33;20127;-94
2021/03/06 03:28:49;;;;;;;14.05;2.45;;;;;;;;;;4305378;33;20095;-95
2021/03/06 03:31:25;;;;;;;9.45;1.65;;;;;;;;;;4317260;33;20115;-94
2021/03/06 03:33:56;;;;;;;15.48;1.95;;;;;;;;;;4306038;33;20089;-94
2021/03/06 03:36:45;;;;;;;11.18;1.80;;;;;;;;;;4307477;33;20102;-94
2021/03/06 03:39:14;;;;;;;13.90;2.17;;;;;;;;;;4317695;33;20056;-93
2021/03/06 03:41:47;;;;;;;11.50;2.00;;;;;;;;;;4330634;33;20167;-93
2021/03/06 03:44:16;;;;;;;12.82;1.95;;;;;;;;;;4317645;33;20130;-94
2021/03/06 03:46:50;;;;;;;11.73;2.28;;;;;;;;;;4318923;33;20048;-94
2021/03/06 03:49:22;;;;;;;12.82;2.10;;;;;;;;;;4317345;33;20083;-94
2021/03/06 03:51:57;;;;;;;14.95;1.80;;;;;;;;;;4320011;33;20114;-93
2021/03/06 03:54:28;;;;;;;10.70;1.90;;;;;;;;;;4319139;33;20053;-93
2021/03/06 03:57:03;;;;;;;40.47;35.25;;;;;;;;;;4326901;33;20107;-92
2021/03/06 03:59:37;;;;;;;10.32;1.83;;;;;;;;;;4328389;33;20063;-94
2021/03/06 04:02:09;;;;;;;11.70;1.85;;;;;;;;;;4326840;33;20074;-93
2021/03/06 04:04:38;;;;;;;9.63;2.00;;;;;;;;;;4319690;33;20095;-94
2021/03/06 04:07:06;;;;;;;14.05;1.90;;;;;;;;;;4303267;33;20389;-93
2021/03/06 04:09:51;;;;;;;12.55;1.90;;;;;;;;;;4328186;33;20040;-93
2021/03/06 04:12:21;;;;;;;11.25;1.55;;;;;;;;;;4319520;33;20449;-95
2021/03/06 04:14:49;;;;;;;44.40;34.35;;;;;;;;;;4316386;33;20146;-95
2021/03/06 04:17:18;;;;;;;45.35;34.58;;;;;;;;;;4317137;33;20063;-94
2021/03/06 04:19:49;;;;;;;13.32;2.65;;;;;;;;;;4317879;33;20083;-93
2021/03/06 04:22:22;;;;;;;37.88;31.95;;;;;;;;;;4311178;33;20040;-93
2021/03/06 04:24:55;;;;;;;11.02;1.60;;;;;;;;;;4315165;33;20481;-95
2021/03/06 04:27:28;;;;;;;14.52;2.00;;;;;;;;;;4315525;33;20065;-93
2021/03/06 04:30:01;;;;;;;10.15;1.40;;;;;;;;;;4323779;33;20150;-95
2021/03/06 04:32:30;;;;;;;8.50;1.48;;;;;;;;;;4333755;33;20055;-95
2021/03/06 04:35:08;;;;;;;4.40;0.80;;;;;;;;;;4332254;33;20423;-96
2021/03/06 04:37:45;;;;;;;12.02;1.75;;;;;;;;;;4320325;33;20485;-96
2021/03/06 04:40:16;;;;;;;6.57;1.27;;;;;;;;;;4331630;33;20060;-95
2021/03/06 04:43:04;;;;;;;5.93;1.27;;;;;;;;;;4318716;33;20091;-95
2021/03/06 04:45:33;;;;;;;10.70;1.60;;;;;;;;;;4308503;33;20068;-95
2021/03/06 04:48:06;;;;;;;5.45;1.15;;;;;;;;;;4322041;33;20315;-96
2021/03/06 04:50:43;;;;;;;7.45;1.20;;;;;;;;;;4321957;33;20381;-96
2021/03/06 04:53:34;;;;;;;7.53;1.73;;;;;;;;;;4249777;33;20053;-96
2021/03/06 04:56:30;;;;;;;25.40;22.75;;;;;;;;;;4431678;31;20139;-78
2021/03/06 04:58:58;;;;;;;13.60;1.80;;;;;;;;;;4428598;32;20072;-77
2021/03/06 05:01:27;;;;;;;16.08;2.40;;;;;;;;;;4415822;32;20042;-78
2021/03/06 05:03:56;;;;;;;18.20;1.83;;;;;;;;;;4415158;32;20133;-77
2021/03/06 05:06:35;;;;;;;12.10;2.03;;;;;;;;;;4418724;32;20464;-78
2021/03/06 05:09:03;;;;;;;7.78;1.40;;;;;;;;;;4426113;32;20119;-77
2021/03/06 05:11:31;;;;;;;12.35;1.67;;;;;;;;;;4416409;32;20136;-79
2021/03/06 05:13:59;;;;;;;9.15;1.60;;;;;;;;;;4419694;32;20054;-78
2021/03/06 05:16:27;;;;;;;7.57;1.33;;;;;;;;;;4425943;32;20038;-77
2021/03/06 05:18:55;;;;;;;9.60;1.70;;;;;;;;;;4428510;32;20057;-77
2021/03/06 05:21:24;;;;;;;9.45;1.52;;;;;;;;;;4424210;32;20053;-78
2021/03/06 05:23:52;;;;;;;23.73;10.30;;;;;;;;;;4415954;32;20094;-80
2021/03/06 05:26:22;;;;;;;43.53;33.92;;;;;;;;;;4404981;32;20171;-78
2021/03/06 05:28:50;;;;;;;45.22;34.08;;;;;;;;;;4419406;32;20096;-79
2021/03/06 05:31:18;;;;;;;50.15;36.65;;;;;;;;;;4412977;32;20116;-78
2021/03/06 05:33:46;;;;;;;43.97;35.60;;;;;;;;;;4421280;32;20125;-78
2021/03/06 05:36:14;;;;;;;14.82;2.00;;;;;;;;;;4426461;32;20077;-78
2021/03/06 05:38:42;;;;;;;12.15;2.40;;;;;;;;;;4417591;32;20082;-82
2021/03/06 05:41:10;;;;;;;10.40;1.90;;;;;;;;;;4414281;32;20150;-79
2021/03/06 05:43:39;;;;;;;11.60;1.95;;;;;;;;;;4421917;32;20607;-78
2021/03/06 05:46:07;;;;;;;14.73;2.17;;;;;;;;;;4428251;32;20049;-78
2021/03/06 05:48:36;;;;;;;12.35;2.10;;;;;;;;;;4411856;32;20449;-78
2021/03/06 05:51:04;;;;;;;10.02;2.50;;;;;;;;;;4417659;32;20058;-80
2021/03/06 05:53:33;;;;;;;41.90;33.67;;;;;;;;;;4423465;32;20095;-78
2021/03/06 05:56:03;;;;;;;37.42;33.03;;;;;;;;;;4421052;32;20097;-78
2021/03/06 05:58:33;;;;;;;39.50;31.90;;;;;;;;;;4423788;32;20068;-79
2021/03/06 06:01:02;;;;;;;32.95;25.85;;;;;;;;;;4422261;32;20447;-79
2021/03/06 06:03:32;;;;;;;44.78;33.55;;;;;;;;;;4429539;32;20049;-78
2021/03/06 06:06:00;;;;;;;43.55;33.88;;;;;;;;;;4427366;32;20106;-77
2021/03/06 06:08:28;;;;;;;43.47;33.45;;;;;;;;;;4418336;32;20055;-79
2021/03/06 06:10:58;;;;;;;38.70;28.02;;;;;;;;;;4415645;32;20054;-78
2021/03/06 06:13:26;;;;;;;19.10;10.00;;;;;;;;;;4406327;32;20064;-78
2021/03/06 06:15:54;;;;;;;11.75;1.95;;;;;;;;;;4414907;32;20117;-79
2021/03/06 06:18:23;;;;;;;10.93;1.67;;;;;;;;;;4407121;32;20118;-79
2021/03/06 06:20:51;;;;;;;16.55;2.50;;;;;;;;;;4409750;32;20142;-81
2021/03/06 06:23:20;;;;;;;14.27;3.65;;;;;;;;;;4406164;32;20143;-81
2021/03/06 06:25:48;;;;;;;5.80;1.27;;;;;;;;;;4411369;32;20085;-81
2021/03/06 06:28:19;;;;;;;32.10;12.30;;;;;;;;;;4401923;32;20481;-83
2021/03/06 06:31:21;;;;;;;28.45;21.55;;;;;;;;;;4406328;32;20093;-84
2021/03/06 06:34:07;;;;;;;17.30;15.20;;;;;;;;;;4415706;32;20488;-85
2021/03/06 06:36:47;;;;;;;8.32;1.50;;;;;;;;;;4424939;32;20117;-82
2021/03/06 06:39:30;;;;;;;8.32;1.83;;;;;;;;;;4407363;32;20533;-81
2021/03/06 06:41:59;;;;;;;15.75;2.15;;;;;;;;;;4415157;32;20093;-81
2021/03/06 06:44:29;;;;;;;9.63;2.00;;;;;;;;;;4415448;32;20442;-82
2021/03/06 06:47:13;;;;;;;11.48;2.47;;;;;;;;;;4415875;32;20054;-82
2021/03/06 06:49:49;;;;;;;8.80;1.70;;;;;;;;;;4407794;32;20538;-81
2021/03/06 06:52:18;;;;;;;10.35;2.08;;;;;;;;;;4418339;32;20439;-81
2021/03/06 06:54:57;;;;;;;10.80;1.87;;;;;;;;;;4418292;32;20514;-80
2021/03/06 06:57:26;;;;;;;17.23;2.33;;;;;;;;;;4412276;32;20126;-81
2021/03/06 06:59:58;;;;;;;19.95;2.33;;;;;;;;;;4416959;32;20128;-81
2021/03/06 07:02:27;;;;;;;17.10;2.65;;;;;;;;;;4413973;32;20754;-81
2021/03/06 07:04:56;;;;;;;11.23;2.20;;;;;;;;;;4412050;32;20494;-80
2021/03/06 07:07:27;;;;;;;9.05;1.73;;;;;;;;;;4414021;32;20524;-82
2021/03/06 07:09:57;;;;;;;16.37;1.90;;;;;;;;;;4415208;32;20080;-81
2021/03/06 07:12:26;;;;;;;14.95;2.10;;;;;;;;;;4409156;32;20111;-81
2021/03/06 07:14:54;;;;;;;9.57;1.92;;;;;;;;;;4426532;32;20119;-82
2021/03/06 07:17:22;;;;;;;10.88;2.08;;;;;;;;;;4409630;32;20554;-82
2021/03/06 07:19:50;;;;;;;13.73;2.47;;;;;;;;;;4413744;32;20049;-81
2021/03/06 07:22:18;;;;;;;15.20;2.25;;;;;;;;;;4416062;32;20049;-81
2021/03/06 07:24:47;;;;;;;14.65;2.55;;;;;;;;;;4424923;32;20058;-80
2021/03/06 07:27:15;;;;;;;13.43;2.78;;;;;;;;;;4415341;32;20134;-80
2021/03/06 07:29:43;;;;;;;14.55;2.67;;;;;;;;;;4410864;32;20101;-80
2021/03/06 07:32:12;;;;;;;24.87;3.00;;;;;;;;;;4403387;32;20082;-80
2021/03/06 07:34:40;;;;;;;22.40;11.52;;;;;;;;;;4407457;32;21559;-81
2021/03/06 07:37:08;;;;;;;32.58;17.52;;;;;;;;;;4412511;32;20466;-79
2021/03/06 07:39:38;;;;;;;28.83;17.70;;;;;;;;;;4418830;32;20091;-80
2021/03/06 07:42:11;;;;;;;23.35;12.75;;;;;;;;;;4417769;32;20847;-80
2021/03/06 07:44:40;;;;;;;24.60;16.85;;;;;;;;;;4424810;32;20086;-82
2021/03/06 07:47:09;;;;;;;17.02;3.08;;;;;;;;;;4418257;32;20162;-82
2021/03/06 07:49:38;;;;;;;10.55;2.15;;;;;;;;;;4421279;32;20066;-80
2021/03/06 07:52:10;;;;;;;24.50;9.85;;;;;;;;;;4413604;32;20050;-79
2021/03/06 07:54:38;;;;;;;12.25;2.40;;;;;;;;;;4421560;32;20125;-80
2021/03/06 07:57:06;;;;;;;18.60;5.72;;;;;;;;;;4424804;32;20107;-79
2021/03/06 07:59:47;;;;;;;12.52;3.00;;;;;;;;;;4420401;32;20049;-80
2021/03/06 08:02:34;;;;;;;31.02;27.55;;;;;;;;;;4409819;32;20385;-82
2021/03/06 08:05:40;;;;;;;11.70;2.85;;;;;;;;;;4426960;32;20098;-79
2021/03/06 08:08:08;;;;;;;17.30;8.43;;;;;;;;;;4416723;32;20061;-81
2021/03/06 08:10:57;;;;;;;10.40;2.22;;;;;;;;;;4422313;32;20108;-82
2021/03/06 08:13:42;;;;;;;35.80;28.20;;;;;;;;;;4403313;32;20068;-82
2021/03/06 08:16:25;;;;;;;27.98;17.30;;;;;;;;;;4412296;32;20544;-80
2021/03/06 08:18:53;;;;;;;35.80;30.70;;;;;;;;;;4412076;32;20080;-79
2021/03/06 08:21:37;;;;;;;9.73;2.35;;;;;;;;;;4411837;32;20132;-79
2021/03/06 08:27:08;;;;;;;38.80;34.67;;;;;;;;;;4414297;32;20042;-80
2021/03/06 08:29:55;;;;;;;41.47;37.00;;;;;;;;;;4404478;32;20152;-79
2021/03/06 08:32:29;;;;;;;11.25;2.97;;;;;;;;;;4404132;32;21772;-80
2021/03/06 08:34:58;;;;;;;25.23;16.33;;;;;;;;;;4414553;32;20066;-79
2021/03/06 08:37:30;;;;;;;8.35;2.50;;;;;;;;;;4415581;32;20039;-79
2021/03/06 08:40:04;;;;;;;20.77;18.15;;;;;;;;;;4410422;32;20464;-79
2021/03/06 08:42:49;;;;;;;12.73;11.50;;;;;;;;;;4410188;32;20062;-80
2021/03/06 08:45:18;;;;;;;8.05;2.30;;;;;;;;;;4414600;32;20052;-81
2021/03/06 08:47:48;;;;;;;7.03;1.95;;;;;;;;;;4410366;32;20144;-83
2021/03/06 08:50:18;;;;;;;11.12;2.80;;;;;;;;;;4408046;32;20097;-81
2021/03/06 08:52:57;;;;;;;7.60;2.20;;;;;;;;;;4404817;32;20483;-79
2021/03/06 08:55:27;;;;;;;7.62;1.90;;;;;;;;;;4415967;32;20057;-81
2021/03/06 08:57:55;;;;;;;9.52;2.15;;;;;;;;;;4404586;32;20428;-81
2021/03/06 09:00:35;;;;;;;9.60;2.50;;;;;;;;;;4408005;32;20585;-79
2021/03/06 09:03:11;;;;;;;8.00;2.08;;;;;;;;;;4411072;32;20097;-79
2021/03/06 09:05:39;;;;;;;4.72;1.73;;;;;;;;;;4416280;32;20558;-80
2021/03/06 09:08:08;;;;;;;8.02;2.15;;;;;;;;;;4403590;32;21138;-79
2021/03/06 09:10:36;;;;;;;11.07;2.83;;;;;;;;;;4408037;32;20480;-78
2021/03/06 09:13:14;;;;;;;8.80;2.50;;;;;;;;;;4408171;32;20078;-81
2021/03/06 09:15:50;;;;;;;6.87;2.30;;;;;;;;;;4412223;32;20312;-79
2021/03/06 09:18:20;;;;;;;6.30;1.73;;;;;;;;;;4413155;32;20104;-78
2021/03/06 09:20:56;;;;;;;10.38;2.58;;;;;;;;;;4413184;32;20050;-79
2021/03/06 09:23:42;;;;;;;10.65;2.60;;;;;;;;;;4410750;32;20085;-79
2021/03/06 09:26:16;;;;;;;6.68;2.00;;;;;;;;;;4411269;32;20089;-78
2021/03/06 09:28:44;;;;;;;;;;;;;;;;;;4403796;32;20143;-78
2021/03/06 09:31:13;;;;;;;12.23;4.90;;;;;;;;;;4422319;32;19994;-78
2021/03/06 09:33:42;;;;;;;12.95;5.03;;;;;;;;;;4413395;32;20086;-79
2021/03/06 09:36:11;;;;;;;9.73;4.53;;;;;;;;;;4409916;32;20139;-78
2021/03/06 09:38:46;;;;;;;8.15;1.92;;;;;;;;;;4409602;32;20098;-77
2021/03/06 09:41:16;;;;;;;13.82;3.05;;;;;;;;;;4415757;32;20050;-81
2021/03/06 09:43:48;;;;;;;14.60;3.20;;;;;;;;;;4419496;32;20444;-80
2021/03/06 09:46:17;;;;;;;20.58;12.65;;;;;;;;;;4411901;32;20042;-81
2021/03/06 09:49:13;;;;;;;13.13;2.83;;;;;;;;;;4413042;32;20047;-78
2021/03/06 09:51:48;;;;;;;15.02;3.50;;;;;;;;;;4409498;32;20098;-78
2021/03/06 09:54:17;;;;;;;10.52;5.32;;;;;;;;;;4416228;32;20090;-78
2021/03/06 09:56:46;;;;;;;12.02;6.32;;;;;;;;;;4416231;32;20497;-77
2021/03/06 09:59:15;;;;;;;11.00;7.85;;;;;;;;;;4413777;32;20058;-78
2021/03/06 10:01:43;;;;;;;16.50;8.95;;;;;;;;;;4417147;32;20077;-78
2021/03/06 10:04:16;;;;;;;17.80;9.35;;;;;;;;;;4416367;32;20050;-78
2021/03/06 10:06:49;;;;;;;21.77;11.12;;;;;;;;;;4416015;32;20141;-78
2021/03/06 10:09:18;;;;;;;11.68;9.05;;;;;;;;;;4416631;32;20084;-77
2021/03/06 10:11:47;;;;;;;14.52;6.93;;;;;;;;;;4410561;32;20070;-78
2021/03/06 10:14:20;;;;;;;13.88;7.65;;;;;;;;;;4418821;32;20125;-78
2021/03/06 10:16:52;;;;;;;10.95;4.43;;;;;;;;;;4425673;32;20065;-78
2021/03/06 10:19:21;;;;;;;14.30;4.18;;;;;;;;;;4415706;32;20050;-77
2021/03/06 10:22:05;;;;;;;12.05;3.50;;;;;;;;;;4419105;32;20100;-77
2021/03/06 10:24:50;;;;;;;12.93;2.85;;;;;;;;;;4409655;32;20511;-77
2021/03/06 10:27:33;;;;;;;12.27;3.28;;;;;;;;;;4412105;32;20216;-77
2021/03/06 10:30:14;;;;;;;12.27;2.65;;;;;;;;;;4414838;32;20054;-78
2021/03/06 10:32:47;;;;;;;16.85;8.85;;;;;;;;;;4417819;32;20158;-77
2021/03/06 10:35:34;;;;;;;11.52;4.82;;;;;;;;;;4415769;32;20066;-77
2021/03/06 10:38:16;;;;;;;11.60;2.70;;;;;;;;;;4416337;32;20122;-78
2021/03/06 10:40:50;;;;;;;11.20;2.95;;;;;;;;;;4420695;32;20076;-78
2021/03/06 10:43:30;;;;;;;18.12;6.45;;;;;;;;;;4417002;32;20083;-77
2021/03/06 10:46:20;;;;;;;9.88;5.40;;;;;;;;;;4414434;32;20073;-77
2021/03/06 10:48:53;;;;;;;10.45;8.30;;;;;;;;;;4410094;32;20057;-78
2021/03/06 10:51:22;;;;;;;14.40;10.13;;;;;;;;;;4416956;32;20508;-78
2021/03/06 10:54:03;;;;;;;12.93;2.62;;;;;;;;;;4408567;32;20148;-78
2021/03/06 10:56:31;;;;;;;8.55;2.15;;;;;;;;;;4417506;32;20649;-78
2021/03/06 10:59:01;;;;;;;13.45;2.50;;;;;;;;;;4423257;32;20117;-78
2021/03/06 11:01:51;;;;;;;11.63;2.30;;;;;;;;;;4425175;32;20091;-78
2021/03/06 11:04:30;;;;;;;9.32;2.00;;;;;;;;;;4421538;32;20034;-78
2021/03/06 11:07:06;;;;;;;9.10;2.20;;;;;;;;;;4411686;32;20073;-79
2021/03/06 11:09:38;;;;;;;7.97;2.10;;;;;;;;;;4412893;32;20071;-78
2021/03/06 11:12:16;;;;;;;10.55;5.25;;;;;;;;;;4423340;32;20041;-78
2021/03/06 11:14:44;;;;;;;2.58;1.60;;;;;;;;;;4419943;32;20050;-78
2021/03/06 11:17:16;;;;;;;6.95;2.53;;;;;;;;;;4417834;32;20630;-78
2021/03/06 11:19:44;;;;;;;5.70;2.28;;;;;;;;;;4424427;32;20599;-79
2021/03/06 11:22:12;;;;;;;6.53;2.45;;;;;;;;;;4425973;32;20062;-78
2021/03/06 11:24:40;;;;;;;7.90;2.42;;;;;;;;;;4414415;32;20094;-80
2021/03/06 11:27:28;;;;;;;6.85;2.05;;;;;;;;;;4406266;32;20082;-79
2021/03/06 11:29:56;;;;;;;4.97;1.45;;;;;;;;;;4412914;32;20077;-81
2021/03/06 11:32:24;;;;;;;7.43;1.90;;;;;;;;;;4422049;32;20086;-79
2021/03/06 11:34:53;;;;;;;6.00;2.37;;;;;;;;;;4419434;32;20109;-79
2021/03/06 11:37:21;;;;;;;8.52;1.95;;;;;;;;;;4409790;32;20089;-78
2021/03/06 11:39:50;;;;;;;6.07;1.65;;;;;;;;;;4417390;32;20092;-78
2021/03/06 11:42:18;;;;;;;5.85;1.75;;;;;;;;;;4411064;32;20049;-79
2021/03/06 11:44:46;;;;;;;5.90;1.60;;;;;;;;;;4410762;32;20038;-80
2021/03/06 11:47:14;;;;;;;6.40;2.12;;;;;;;;;;4406767;32;20131;-80
2021/03/06 11:49:42;;;;;;;9.60;2.12;;;;;;;;;;4410043;32;20121;-77
2021/03/06 11:52:10;;;;;;;5.32;1.65;;;;;;;;;;4412565;32;20147;-82
2021/03/06 11:54:39;;;;;;;7.55;1.90;;;;;;;;;;4408898;32;20191;-79
2021/03/06 11:57:25;;;;;;;7.10;1.80;;;;;;;;;;4409832;32;20102;-78
2021/03/06 11:59:54;;;;;;;9.23;2.20;;;;;;;;;;4403607;32;20058;-77
2021/03/06 12:02:22;;;;;;;8.55;2.28;;;;;;;;;;4418135;32;20061;-80
2021/03/06 12:04:50;;;;;;;8.82;2.20;;;;;;;;;;4404349;32;20062;-79
2021/03/06 12:07:18;;;;;;;8.35;2.25;;;;;;;;;;4407324;32;20141;-78
2021/03/06 12:09:46;;;;;;;10.57;2.70;;;;;;;;;;4407724;32;20054;-79
2021/03/06 12:12:14;;;;;;;14.68;2.30;;;;;;;;;;4411869;32;20149;-78
2021/03/06 12:14:42;;;;;;;12.20;2.45;;;;;;;;;;4418369;32;20150;-78
2021/03/06 12:17:16;;;;;;;9.88;2.00;;;;;;;;;;4416063;32;20411;-77
2021/03/06 12:19:44;;;;;;;9.13;2.25;;;;;;;;;;4412697;32;20670;-77
2021/03/06 12:22:12;;;;;;;8.20;2.00;;;;;;;;;;4413033;32;20471;-78
2021/03/06 12:24:40;;;;;;;7.40;1.98;;;;;;;;;;4409788;32;20085;-78
2021/03/06 12:27:08;;;;;;;9.40;1.70;;;;;;;;;;4408490;32;20078;-77
2021/03/06 12:29:36;;;;;;;6.68;2.05;;;;;;;;;;4415997;32;20066;-77
2021/03/06 12:32:04;;;;;;;6.70;1.73;;;;;;;;;;4422882;32;20123;-77
2021/03/06 12:34:33;;;;;;;5.50;1.65;;;;;;;;;;4410136;32;20120;-78
2021/03/06 12:37:01;;;;;;;5.87;1.90;;;;;;;;;;4409730;32;20038;-79
2021/03/06 12:39:29;;;;;;;4.60;1.50;;;;;;;;;;4411171;32;20072;-79
2021/03/06 12:41:57;;;;;;;7.78;1.87;;;;;;;;;;4416945;32;20109;-79
2021/03/06 12:44:25;;;;;;;8.10;1.40;;;;;;;;;;4412442;32;20097;-79
2021/03/06 12:46:53;;;;;;;6.37;1.75;;;;;;;;;;4419964;32;20060;-78
2021/03/06 12:49:21;;;;;;;9.35;1.80;;;;;;;;;;4416997;32;20080;-78
2021/03/06 12:51:50;;;;;;;6.93;1.80;;;;;;;;;;4427370;32;20068;-77
2021/03/06 12:54:18;;;;;;;8.38;1.92;;;;;;;;;;4419157;32;20465;-77
2021/03/06 12:56:47;;;;;;;15.02;2.85;;;;;;;;;;4421256;32;20093;-79
2021/03/06 12:59:15;;;;;;;9.23;4.32;;;;;;;;;;4410913;32;20252;-81
2021/03/06 13:01:43;;;;;;;9.80;3.10;;;;;;;;;;4416400;32;20469;-79
2021/03/06 13:04:11;;;;;;;11.48;2.35;;;;;;;;;;4414128;32;20852;-79
2021/03/06 13:06:39;;;;;;;10.13;2.58;;;;;;;;;;4412888;32;20403;-83
2021/03/06 13:09:07;;;;;;;10.82;4.22;;;;;;;;;;4413882;32;20414;-80
2021/03/06 13:11:35;;;;;;;10.85;1.80;;;;;;;;;;4417013;32;20157;-78
2021/03/06 13:14:03;;;;;;;10.55;2.12;;;;;;;;;;4413246;32;20073;-78
2021/03/06 13:16:31;;;;;;;10.98;2.40;;;;;;;;;;4414544;32;20139;-79
2021/03/06 13:18:59;;;;;;;8.52;2.45;;;;;;;;;;4415443;32;20097;-79
2021/03/06 13:21:27;;;;;;;11.20;3.00;;;;;;;;;;4418695;32;20039;-80
2021/03/06 13:23:55;;;;;;;9.02;3.47;;;;;;;;;;4414388;32;20580;-79
2021/03/06 13:26:23;;;;;;;8.10;1.83;;;;;;;;;;4423278;32;20066;-80
2021/03/06 13:28:52;;;;;;;9.07;5.72;;;;;;;;;;4420077;32;20064;-79
2021/03/06 13:31:20;;;;;;;10.20;6.10;;;;;;;;;;4420669;32;20069;-80
2021/03/06 13:33:48;;;;;;;6.62;5.90;;;;;;;;;;4422032;32;20067;-78
2021/03/06 13:36:16;;;;;;;11.38;5.12;;;;;;;;;;4430769;32;20085;-78
2021/03/06 13:38:45;;;;;;;6.47;1.67;;;;;;;;;;4420718;32;20105;-78
2021/03/06 13:41:13;;;;;;;6.45;1.58;;;;;;;;;;4415452;32;20094;-78
2021/03/06 13:43:41;;;;;;;6.95;1.48;;;;;;;;;;4418659;32;20057;-79
2021/03/06 13:46:09;;;;;;;7.32;1.55;;;;;;;;;;4424574;32;20114;-78
2021/03/06 13:48:37;;;;;;;13.38;2.20;;;;;;;;;;4420996;32;20042;-79
2021/03/06 13:51:07;;;;;;;10.02;2.20;;;;;;;;;;4408434;32;20103;-80
2021/03/06 13:53:35;;;;;;;8.18;2.22;;;;;;;;;;4412997;32;20574;-81
2021/03/06 13:56:04;;;;;;;13.38;2.50;;;;;;;;;;4416755;32;20095;-79
2021/03/06 13:58:32;;;;;;;14.10;3.12;;;;;;;;;;4407276;32;20054;-78
2021/03/06 14:01:00;;;;;;;14.00;2.85;;;;;;;;;;4418220;32;20090;-79
2021/03/06 14:03:44;;;;;;;;;;;;;;;;;;4412842;32;20034;-79
2021/03/06 14:06:12;;;;;;;15.48;4.28;;;;;;;;;;4414645;32;19985;-80
2021/03/06 14:08:40;;;;;;;13.18;4.03;;;;;;;;;;4410229;32;20101;-80
2021/03/06 14:11:08;;;;;;;15.43;5.15;;;;;;;;;;4416962;32;20057;-77
2021/03/06 14:13:37;;;;;;;11.77;5.10;;;;;;;;;;4430697;32;20085;-79
2021/03/06 14:16:05;;;;;;;11.90;2.25;;;;;;;;;;4416033;32;20093;-79
2021/03/06 14:18:35;;;;;;;11.00;5.37;;;;;;;;;;4411611;32;20425;-78
2021/03/06 14:21:03;;;;;;;11.25;2.90;;;;;;;;;;4406790;32;20095;-79
2021/03/06 14:23:31;;;;;;;11.00;2.90;;;;;;;;;;4407686;32;20060;-83
2021/03/06 14:26:01;;;;;;;11.25;2.60;;;;;;;;;;4411364;32;20121;-80
2021/03/06 14:28:30;;;;;;;8.88;2.35;;;;;;;;;;4412638;32;20055;-83
2021/03/06 14:31:00;;;;;;;8.85;2.00;;;;;;;;;;4408136;32;20076;-81
2021/03/06 14:33:28;;;;;;;22.20;3.80;;;;;;;;;;4418759;32;20074;-80
2021/03/06 14:35:56;;;;;;;11.07;2.55;;;;;;;;;;4404581;32;20071;-79
2021/03/06 14:38:37;;;;;;;15.85;3.15;;;;;;;;;;4400444;32;20115;-81
2021/03/06 14:41:05;;;;;;;10.05;2.25;;;;;;;;;;4407633;32;20114;-79
2021/03/06 14:43:33;;;;;;;10.05;2.03;;;;;;;;;;4410094;32;20511;-79
2021/03/06 14:46:02;;;;;;;11.27;2.25;;;;;;;;;;4411738;32;20132;-80
2021/03/06 14:48:30;;;;;;;8.48;2.17;;;;;;;;;;4410783;32;20504;-80
2021/03/06 14:51:00;;;;;;;7.80;1.67;;;;;;;;;;4413564;32;20104;-84
2021/03/06 14:53:28;;;;;;;12.70;2.33;;;;;;;;;;4408162;32;20374;-81
2021/03/06 14:55:56;;;;;;;16.10;2.78;;;;;;;;;;4406399;32;20076;-81
2021/03/06 14:58:29;;;;;;;12.90;2.45;;;;;;;;;;4405325;32;20441;-83
2021/03/06 15:00:57;;;;;;;9.43;2.50;;;;;;;;;;4408076;32;20083;-82